Time;durP1;ratioP1;P1;durP2;ratioP2;P2;SDS_P1;SDS_P2;PMS_P1;PMS_P2;Temp;Humidity;BMP_temperature;BMP_pressure;BME280_temperature;BME280_humidity;BME280_pressure;Samples;Min_cycle;Max_cycle;Signal;HPM_P1;HPM_P2
2022/01/28 00:05:00;;;;;;;19.27;3.22;;;5.00;99.90;;;;;;4972600;28;20476;-88
2022/01/28 00:07:26;;;;;;;18.02;3.55;;;4.90;99.90;;;;;;4955916;28;20062;-87
2022/01/28 00:09:52;;;;;;;19.20;3.15;;;5.30;99.90;;;;;;4972497;28;20054;-87
2022/01/28 00:12:18;;;;;;;14.88;2.72;;;4.90;99.90;;;;;;4956360;28;20480;-87
2022/01/28 00:38:54;;;;;;;26.30;4.30;;;5.10;99.90;;;;;;4972125;28;20088;-88
2022/01/28 00:41:20;;;;;;;17.65;3.17;;;5.10;99.90;;;;;;4972338;28;20089;-88
2022/01/28 00:43:46;;;;;;;24.73;3.45;;;5.10;99.90;;;;;;4988825;28;20133;-89
2022/01/28 00:46:12;;;;;;;21.50;4.03;;;5.10;99.90;;;;;;4955932;28;20046;-88
2022/01/28 00:48:37;;;;;;;24.25;4.07;;;5.30;99.90;;;;;;4955658;28;20475;-87
2022/01/28 00:51:03;;;;;;;17.63;3.60;;;4.90;99.90;;;;;;4971831;28;20053;-87
2022/01/28 00:53:29;;;;;;;26.05;4.60;;;5.00;99.90;;;;;;4971791;28;20384;-88
2022/01/28 00:55:54;;;;;;;27.45;4.40;;;5.20;99.90;;;;;;4989338;28;20038;-88
2022/01/28 00:58:21;;;;;;;20.70;4.03;;;4.90;99.90;;;;;;4955829;28;20042;-87
2022/01/28 01:00:47;;;;;;;13.77;3.35;;;4.90;99.90;;;;;;4971320;28;20491;-88
2022/01/28 01:03:12;;;;;;;16.42;3.38;;;6.10;99.90;;;;;;4939765;28;20038;-88
2022/01/28 01:05:38;;;;;;;18.65;3.78;;;4.90;99.90;;;;;;4988446;28;20052;-87
2022/01/28 01:08:04;;;;;;;20.60;4.35;;;5.30;99.90;;;;;;4989129;28;20058;-86
2022/01/28 01:10:30;;;;;;;19.80;3.33;;;5.00;99.90;;;;;;4988893;28;20054;-87
2022/01/28 01:12:56;;;;;;;21.42;3.00;;;4.90;99.90;;;;;;4970238;28;20329;-87
2022/01/28 01:15:26;;;;;;;17.13;3.58;;;5.00;99.90;;;;;;4974214;28;20058;-88
2022/01/28 01:18:01;;;;;;;17.58;3.40;;;5.10;99.90;;;;;;4956265;28;20064;-88
2022/01/28 01:23:21;;;;;;;21.75;3.92;;;5.40;99.90;;;;;;4988583;28;20047;-87
2022/01/28 01:25:59;;;;;;;17.27;3.28;;;5.70;99.90;;;;;;4943939;28;20495;-87
2022/01/28 01:28:27;;;;;;;22.17;3.55;;;6.20;99.90;;;;;;4928842;28;20121;-87
2022/01/28 01:30:53;;;;;;;20.25;4.10;;;6.20;99.90;;;;;;4971259;28;20475;-88
2022/01/28 01:33:20;;;;;;;13.95;2.72;;;5.00;99.90;;;;;;4955671;28;20053;-87
2022/01/28 01:35:46;;;;;;;16.52;3.00;;;5.20;99.90;;;;;;4973978;28;20081;-87
2022/01/28 01:38:12;;;;;;;19.00;3.63;;;5.30;99.90;;;;;;4943019;28;20073;-87
2022/01/28 01:40:46;;;;;;;23.33;3.00;;;5.10;99.90;;;;;;4942329;28;20046;-88
2022/01/28 01:53:59;;;;;;;;;;;5.00;99.90;;;;;;4961632;28;20046;-87
2022/01/28 01:56:25;;;;;;;27.20;3.60;;;5.30;99.90;;;;;;4974684;28;19925;-87
2022/01/28 01:58:50;;;;;;;26.40;4.10;;;5.30;99.90;;;;;;4941974;28;20053;-87
2022/01/28 02:01:16;;;;;;;24.55;4.00;;;5.40;99.90;;;;;;4958397;28;20125;-88
2022/01/28 02:03:42;;;;;;;22.17;4.10;;;6.10;99.90;;;;;;4991156;28;20096;-89
2022/01/28 02:06:07;;;;;;;26.92;5.35;;;5.10;99.90;;;;;;4974566;28;20056;-88
2022/01/28 02:08:34;;;;;;;17.88;4.05;;;5.10;99.90;;;;;;4941728;28;20066;-88
2022/01/28 02:10:59;;;;;;;19.17;3.85;;;5.00;99.90;;;;;;4957942;28;20054;-89
2022/01/28 02:13:26;;;;;;;16.52;4.05;;;5.90;99.90;;;;;;4973705;28;20039;-89
2022/01/28 02:15:52;;;;;;;29.95;6.47;;;5.10;99.90;;;;;;4957869;28;20086;-88
2022/01/28 02:18:18;;;;;;;29.45;3.78;;;5.10;99.90;;;;;;4974033;28;20082;-88
2022/01/28 02:20:48;;;;;;;40.20;5.35;;;5.00;99.90;;;;;;4973992;28;20527;-88
2022/01/28 02:23:14;;;;;;;23.45;4.15;;;5.70;99.90;;;;;;4974633;28;20034;-88
2022/01/28 02:25:39;;;;;;;27.88;4.95;;;5.70;99.90;;;;;;4973431;28;20368;-89
2022/01/28 02:28:07;;;;;;;25.13;4.78;;;5.10;99.90;;;;;;4973931;28;20050;-89
2022/01/28 02:30:33;;;;;;;22.75;4.32;;;5.20;99.90;;;;;;4991002;28;20096;-87
2022/01/28 02:33:14;;;;;;;24.20;5.22;;;5.20;99.90;;;;;;4957565;28;20054;-88
2022/01/28 02:35:42;;;;;;;25.25;4.40;;;5.20;99.90;;;;;;4946168;28;20042;-88
2022/01/28 02:38:11;;;;;;;26.38;5.00;;;5.20;99.90;;;;;;4958178;28;20047;-88
2022/01/28 02:40:38;;;;;;;33.28;6.43;;;5.20;99.90;;;;;;4957977;28;20049;-89
2022/01/28 02:44:07;;;;;;;29.80;5.25;;;5.20;99.90;;;;;;4973241;28;20084;-88
2022/01/28 02:45:52;;;;;;;32.03;5.50;;;5.30;99.90;;;;;;4962240;28;20054;-89
2022/01/28 02:48:27;;;;;;;28.38;5.50;;;5.20;99.90;;;;;;4973707;28;20050;-89
2022/01/28 02:53:36;;;;;;;32.50;4.60;;;5.10;99.90;;;;;;4958544;28;20061;-88
2022/01/28 02:56:12;;;;;;;30.63;5.43;;;5.20;99.90;;;;;;4958351;28;20054;-88
2022/01/28 02:58:38;;;;;;;36.72;4.53;;;5.20;99.90;;;;;;4943901;28;20104;-88
2022/01/28 03:01:03;;;;;;;33.30;5.35;;;5.10;99.90;;;;;;4957089;28;20046;-89
2022/01/28 03:03:29;;;;;;;29.45;4.55;;;5.40;99.90;;;;;;4990799;28;20045;-88
2022/01/28 03:05:56;;;;;;;21.58;4.50;;;5.10;99.90;;;;;;4990037;28;20046;-90
2022/01/28 03:08:24;;;;;;;41.53;5.75;;;5.20;99.90;;;;;;4957065;28;20050;-89
2022/01/28 03:13:35;;;;;;;26.55;4.75;;;5.10;99.90;;;;;;4973513;28;20053;-89
2022/01/28 03:16:12;;;;;;;30.83;7.18;;;6.00;99.90;;;;;;4990399;28;20384;-90
2022/01/28 03:18:50;;;;;;;27.73;4.90;;;5.10;99.90;;;;;;4944738;28;20484;-89
2022/01/28 03:21:54;;;;;;;30.00;4.82;;;5.10;99.90;;;;;;4959519;28;20086;-88
2022/01/28 03:24:09;;;;;;;26.42;4.47;;;5.90;99.90;;;;;;4956343;28;20081;-89
2022/01/28 03:26:35;;;;;;;34.97;4.55;;;5.20;99.90;;;;;;4958020;28;20498;-88
2022/01/28 03:29:01;;;;;;;35.15;4.90;;;5.20;99.90;;;;;;4956913;28;20662;-88
2022/01/28 03:31:26;;;;;;;29.92;5.40;;;5.30;99.90;;;;;;4941300;28;20138;-88
2022/01/28 03:33:52;;;;;;;38.53;6.40;;;5.40;99.90;;;;;;4972816;28;20490;-89
2022/01/28 03:36:17;;;;;;;12.32;2.55;;;6.00;99.90;;;;;;4957133;28;20050;-88
2022/01/28 03:38:47;;;;;;;31.60;4.65;;;6.40;99.90;;;;;;4973211;28;20039;-89
2022/01/28 03:41:16;;;;;;;33.17;5.25;;;5.50;99.90;;;;;;4957712;28;20094;-89
2022/01/28 03:43:44;;;;;;;25.63;4.78;;;5.70;99.90;;;;;;4957615;28;20035;-88
2022/01/28 03:46:09;;;;;;;23.20;4.10;;;5.60;99.90;;;;;;4956791;28;20054;-88
2022/01/28 03:48:35;;;;;;;26.80;5.15;;;5.60;99.90;;;;;;4972575;28;20095;-89
2022/01/28 03:51:01;;;;;;;31.30;5.15;;;5.70;99.90;;;;;;4972381;28;20042;-88
2022/01/28 03:53:27;;;;;;;26.83;5.32;;;5.60;99.90;;;;;;4956517;28;20054;-88
2022/01/28 03:55:54;;;;;;;28.33;4.68;;;6.70;99.90;;;;;;4989640;28;20549;-88
2022/01/28 03:58:19;;;;;;;21.70;4.25;;;5.60;99.90;;;;;;4971613;28;20133;-89
2022/01/28 04:00:45;;;;;;;21.77;4.47;;;5.60;99.90;;;;;;4972381;28;20122;-88
2022/01/28 04:13:46;;;;;;;30.80;5.30;;;5.60;99.90;;;;;;4971997;28;20061;-87
2022/01/28 04:16:32;;;;;;;18.63;3.60;;;5.60;99.90;;;;;;4971847;28;20050;-89
2022/01/28 04:19:01;;;;;;;20.23;3.72;;;5.60;99.90;;;;;;4972434;28;20046;-90
2022/01/28 04:21:28;;;;;;;21.60;4.85;;;5.60;99.90;;;;;;4979419;28;20050;-89
2022/01/28 04:23:54;;;;;;;29.45;4.35;;;6.40;99.90;;;;;;5004930;28;20069;-92
2022/01/28 04:26:19;;;;;;;23.88;4.55;;;5.60;99.90;;;;;;4972583;28;20046;-88
2022/01/28 04:28:45;;;;;;;22.40;4.05;;;5.50;99.90;;;;;;4989505;28;20046;-89
2022/01/28 04:31:10;;;;;;;18.45;3.60;;;5.40;99.90;;;;;;4972140;28;20490;-88
2022/01/28 04:33:36;;;;;;;25.08;4.80;;;5.30;99.90;;;;;;4972278;28;20042;-89
2022/01/28 04:36:02;;;;;;;24.92;3.95;;;5.20;99.90;;;;;;4972043;28;20414;-88
2022/01/28 04:41:09;;;;;;;21.60;3.92;;;4.90;99.90;;;;;;4972146;28;20054;-90
2022/01/28 04:43:42;;;;;;;27.00;4.32;;;5.00;99.90;;;;;;4972039;28;20038;-89
2022/01/28 04:46:17;;;;;;;23.90;4.32;;;5.70;99.90;;;;;;4971796;28;20046;-88
2022/01/28 04:48:57;;;;;;;23.10;4.03;;;4.80;99.90;;;;;;4957449;28;20054;-88
2022/01/28 04:51:48;;;;;;;30.05;5.85;;;4.70;99.90;;;;;;4957909;28;20058;-89
2022/01/28 04:54:51;;;;;;;22.85;4.75;;;4.70;99.90;;;;;;4971746;28;20087;-89
2022/01/28 05:10:50;;;;;;;25.50;4.35;;;4.70;99.90;;;;;;4975574;28;20058;-88
2022/01/28 05:15:56;;;;;;;26.08;4.22;;;5.00;99.90;;;;;;4975243;28;20065;-89
2022/01/28 05:26:26;;;;;;;31.83;5.20;;;5.00;99.90;;;;;;4974769;28;20455;-88
2022/01/28 05:28:52;;;;;;;24.63;5.15;;;4.90;99.90;;;;;;4992447;28;20093;-88
2022/01/28 05:31:18;;;;;;;26.08;5.07;;;5.10;99.90;;;;;;4958650;28;20049;-88
2022/01/28 05:33:44;;;;;;;23.05;4.65;;;6.00;99.90;;;;;;4942890;28;20101;-89
2022/01/28 05:36:10;;;;;;;31.30;7.10;;;4.90;99.90;;;;;;4958641;28;20364;-88
2022/01/28 05:38:35;;;;;;;28.33;5.10;;;5.10;99.90;;;;;;4974611;28;20043;-89
2022/01/28 05:41:01;;;;;;;20.60;4.63;;;4.80;99.90;;;;;;4974865;28;20053;-89
2022/01/28 05:43:27;;;;;;;27.33;4.97;;;4.70;99.90;;;;;;4974271;28;20111;-89
2022/01/28 05:45:52;;;;;;;23.88;4.18;;;4.70;99.90;;;;;;4974762;28;20048;-88
2022/01/28 05:48:20;;;;;;;25.25;4.55;;;4.80;99.90;;;;;;4991511;28;20038;-88
2022/01/28 05:50:45;;;;;;;23.90;4.40;;;4.90;99.90;;;;;;4958720;28;20046;-89
2022/01/28 05:53:11;;;;;;;24.08;4.13;;;5.30;99.90;;;;;;4974514;28;20052;-89
2022/01/28 05:55:37;;;;;;;30.88;4.45;;;4.80;99.90;;;;;;4991876;28;20051;-88
2022/01/28 05:58:02;;;;;;;21.88;4.57;;;5.80;99.90;;;;;;4958823;28;20042;-89
2022/01/28 06:00:28;;;;;;;25.10;5.07;;;5.90;99.90;;;;;;4975300;28;20053;-89
2022/01/28 06:02:54;;;;;;;27.80;5.38;;;4.80;99.90;;;;;;4976355;28;20053;-87
2022/01/28 06:05:19;;;;;;;23.48;4.75;;;4.90;99.90;;;;;;4975017;28;20574;-86
2022/01/28 06:07:45;;;;;;;22.95;4.05;;;4.80;99.90;;;;;;4974069;28;20180;-86
2022/01/28 06:10:12;;;;;;;23.73;4.18;;;4.90;99.90;;;;;;4974014;28;20122;-87
2022/01/28 06:12:45;;;;;;;24.92;5.05;;;4.90;99.90;;;;;;4958063;28;20053;-87
2022/01/28 06:15:11;;;;;;;23.52;4.07;;;5.20;99.90;;;;;;4974162;28;20085;-87
2022/01/28 06:17:37;;;;;;;30.35;4.60;;;5.90;99.90;;;;;;4942015;28;20089;-87
2022/01/28 06:20:04;;;;;;;22.55;4.05;;;5.20;99.90;;;;;;4973144;28;20046;-87
2022/01/28 06:22:30;;;;;;;24.15;4.22;;;5.00;99.90;;;;;;4957831;28;20300;-86
2022/01/28 06:24:55;;;;;;;29.88;5.22;;;5.10;99.90;;;;;;4974223;28;20053;-87
2022/01/28 06:27:22;;;;;;;35.45;5.43;;;5.10;99.90;;;;;;4974134;28;20524;-87
2022/01/28 06:29:51;;;;;;;27.52;4.95;;;5.10;99.90;;;;;;4974556;28;20357;-86
2022/01/28 06:32:17;;;;;;;23.10;4.50;;;5.10;99.90;;;;;;4969661;28;20061;-87
2022/01/28 06:34:43;;;;;;;22.88;4.38;;;5.30;99.90;;;;;;4975095;28;20121;-88
2022/01/28 06:37:09;;;;;;;26.60;4.43;;;5.10;99.90;;;;;;4973818;28;20097;-87
2022/01/28 06:39:34;;;;;;;22.73;4.60;;;5.10;99.90;;;;;;4973852;28;20051;-88
2022/01/28 06:42:00;;;;;;;26.45;4.32;;;5.30;99.90;;;;;;4958009;28;20119;-87
2022/01/28 06:44:26;;;;;;;35.85;5.47;;;5.80;99.90;;;;;;4973387;28;20099;-87
2022/01/28 06:46:52;;;;;;;25.17;4.30;;;5.70;99.90;;;;;;4991173;28;20043;-86
2022/01/28 06:49:18;;;;;;;20.55;3.92;;;4.90;99.90;;;;;;4941984;28;20058;-87
2022/01/28 06:51:43;;;;;;;30.05;4.38;;;4.90;99.90;;;;;;4958321;28;20038;-86
2022/01/28 06:54:09;;;;;;;25.88;4.85;;;4.70;99.90;;;;;;4957847;28;20115;-86
2022/01/28 06:56:35;;;;;;;23.95;4.63;;;4.70;99.90;;;;;;4957521;28;20176;-86
2022/01/28 06:59:00;;;;;;;27.75;5.00;;;4.70;99.90;;;;;;4974220;28;20072;-85
2022/01/28 07:01:26;;;;;;;25.20;4.32;;;4.60;99.90;;;;;;4990969;28;20050;-85
2022/01/28 07:03:52;;;;;;;29.55;4.63;;;4.70;99.90;;;;;;4991162;28;20088;-86
2022/01/28 07:06:18;;;;;;;23.02;5.20;;;4.70;99.90;;;;;;4973947;28;20466;-86
2022/01/28 07:08:44;;;;;;;28.73;5.00;;;4.50;99.90;;;;;;4973590;28;20058;-88
2022/01/28 07:11:10;;;;;;;31.00;5.35;;;4.50;99.90;;;;;;4990769;28;20049;-86
2022/01/28 07:13:35;;;;;;;28.95;4.82;;;4.60;99.90;;;;;;4973560;28;20133;-86
2022/01/28 07:16:01;;;;;;;28.65;4.72;;;4.50;99.90;;;;;;4973795;28;20143;-85
2022/01/28 07:18:28;;;;;;;33.35;4.70;;;4.90;99.90;;;;;;4957093;28;20100;-89
2022/01/28 07:20:54;;;;;;;34.03;5.50;;;4.40;99.90;;;;;;4956990;28;20074;-85
2022/01/28 07:23:20;;;;;;;27.45;4.57;;;4.60;99.90;;;;;;4956918;28;20139;-86
2022/01/28 07:25:45;;;;;;;23.20;4.47;;;5.10;99.90;;;;;;4973205;28;20491;-86
2022/01/28 07:28:11;;;;;;;27.45;4.35;;;4.70;99.90;;;;;;4990359;28;20042;-87
2022/01/28 07:30:37;;;;;;;29.15;4.57;;;4.40;99.90;;;;;;4972489;28;20081;-86
2022/01/28 07:33:05;;;;;;;33.03;5.72;;;4.50;99.90;;;;;;4990220;28;20039;-85
2022/01/28 07:35:31;;;;;;;35.55;5.20;;;5.40;99.90;;;;;;4956453;28;20137;-86
2022/01/28 07:37:57;;;;;;;24.30;4.78;;;4.50;99.90;;;;;;4972855;28;20125;-85
2022/01/28 07:40:22;;;;;;;22.85;4.95;;;4.40;99.90;;;;;;4972271;28;20046;-84
2022/01/28 07:42:48;;;;;;;24.77;5.28;;;4.70;99.90;;;;;;4972700;28;20480;-85
2022/01/28 07:45:14;;;;;;;27.67;4.95;;;4.50;99.90;;;;;;4989762;28;20484;-85
2022/01/28 07:47:40;;;;;;;27.50;4.75;;;4.70;99.90;;;;;;4972719;28;20205;-85
2022/01/28 07:50:07;;;;;;;31.73;4.93;;;4.70;99.90;;;;;;4972973;28;20320;-85
2022/01/28 07:52:33;;;;;;;31.33;4.80;;;4.70;99.90;;;;;;4972270;28;20088;-85
2022/01/28 07:54:59;;;;;;;28.90;4.15;;;4.80;99.90;;;;;;4972653;28;20042;-86
2022/01/28 07:57:24;;;;;;;29.48;5.45;;;4.90;99.90;;;;;;4989404;28;20128;-86
2022/01/28 07:59:50;;;;;;;27.80;4.82;;;5.00;99.90;;;;;;4989691;28;20054;-85
2022/01/28 08:02:16;;;;;;;31.95;5.82;;;5.00;99.90;;;;;;4972470;28;20099;-87
2022/01/28 08:04:41;;;;;;;23.70;4.60;;;5.30;99.90;;;;;;4972128;28;20038;-87
2022/01/28 08:07:07;;;;;;;24.92;4.38;;;4.90;99.90;;;;;;4956189;28;20099;-85
2022/01/28 08:09:33;;;;;;;27.75;3.63;;;4.80;99.90;;;;;;4972541;28;20482;-86
2022/01/28 08:11:58;;;;;;;28.35;5.00;;;4.80;99.90;;;;;;4972310;28;20074;-86
2022/01/28 08:14:24;;;;;;;25.38;4.55;;;4.80;99.90;;;;;;4972296;28;20042;-89
2022/01/28 08:16:50;;;;;;;28.63;4.28;;;4.60;99.90;;;;;;4972404;28;20131;-85
2022/01/28 08:19:16;;;;;;;34.78;6.35;;;4.60;99.90;;;;;;4972042;28;20042;-85
2022/01/28 08:21:41;;;;;;;29.52;4.00;;;5.40;99.90;;;;;;4955624;28;20042;-86
2022/01/28 08:24:07;;;;;;;31.10;5.35;;;4.60;99.90;;;;;;4989479;28;20042;-86
2022/01/28 08:26:33;;;;;;;26.73;4.68;;;4.70;99.90;;;;;;4989221;28;20038;-86
2022/01/28 08:28:58;;;;;;;30.10;4.57;;;4.80;99.90;;;;;;4989511;28;20136;-86
2022/01/28 08:31:24;;;;;;;41.15;6.80;;;4.60;99.90;;;;;;4990961;28;20046;-85
2022/01/28 08:33:50;;;;;;;27.20;4.63;;;5.70;99.90;;;;;;4943021;28;20099;-85
2022/01/28 08:36:15;;;;;;;35.63;5.25;;;4.70;99.90;;;;;;4976057;28;20472;-85
2022/01/28 08:38:44;;;;;;;27.05;4.82;;;4.70;99.90;;;;;;4974521;28;20050;-86
2022/01/28 08:41:12;;;;;;;33.75;5.28;;;5.00;99.90;;;;;;4989349;28;20064;-86
2022/01/28 08:43:39;;;;;;;28.75;4.85;;;4.90;99.90;;;;;;4955240;28;20099;-86
2022/01/28 08:46:04;;;;;;;37.85;5.25;;;5.00;99.90;;;;;;4959013;28;20376;-86
2022/01/28 08:48:30;;;;;;;25.98;4.22;;;5.10;99.90;;;;;;4991169;28;20087;-85
2022/01/28 08:50:56;;;;;;;25.42;4.72;;;5.90;99.90;;;;;;4971792;28;20050;-85
2022/01/28 08:53:22;;;;;;;31.67;5.28;;;5.50;99.90;;;;;;4955768;28;20172;-85
2022/01/28 08:55:48;;;;;;;25.52;4.80;;;5.70;99.90;;;;;;4988692;28;20129;-88
2022/01/28 08:58:14;;;;;;;28.38;4.85;;;6.00;99.90;;;;;;4939450;28;20042;-86
2022/01/28 09:00:40;;;;;;;30.02;4.78;;;6.10;99.90;;;;;;4955263;28;20073;-85
2022/01/28 09:03:05;;;;;;;20.42;4.57;;;7.20;99.90;;;;;;4971530;28;20049;-86
2022/01/28 09:05:33;;;;;;;29.45;5.88;;;6.10;99.90;;;;;;4971295;28;20476;-86
2022/01/28 09:08:01;;;;;;;31.17;4.70;;;6.10;99.90;;;;;;4955364;28;20082;-86
2022/01/28 09:10:30;;;;;;;23.98;4.75;;;6.00;99.90;;;;;;4971597;28;20132;-85
2022/01/28 09:15:27;;;;;;;24.60;4.15;;;6.40;99.90;;;;;;4988879;28;20042;-85
2022/01/28 09:17:53;;;;;;;30.17;4.55;;;6.50;99.90;;;;;;4971379;28;20099;-84
2022/01/28 09:20:19;;;;;;;23.80;4.20;;;6.50;99.90;;;;;;4988865;28;20282;-85
2022/01/28 09:22:44;;;;;;;23.90;4.47;;;6.90;99.90;;;;;;4988351;28;20115;-86
2022/01/28 09:25:10;;;;;;;27.33;4.60;;;7.30;99.90;;;;;;4988619;28;20096;-87
2022/01/28 09:27:36;;;;;;;27.73;4.93;;;7.60;99.90;;;;;;4938991;28;20042;-86
2022/01/28 09:30:01;;;;;;;23.30;4.18;;;7.90;99.90;;;;;;4988798;28;20042;-87
2022/01/28 09:32:27;;;;;;;28.90;5.40;;;8.30;99.90;;;;;;4971247;28;20056;-87
2022/01/28 09:34:53;;;;;;;22.05;4.50;;;8.70;99.90;;;;;;4988405;28;20042;-84
2022/01/28 09:37:18;;;;;;;26.80;4.88;;;9.00;99.90;;;;;;4971222;28;20492;-86
2022/01/28 09:39:45;;;;;;;24.92;4.15;;;9.20;99.90;;;;;;4954856;28;20133;-85
2022/01/28 09:42:16;;;;;;;25.25;4.63;;;9.30;99.90;;;;;;4971360;28;20050;-87
2022/01/28 09:44:42;;;;;;;26.00;5.38;;;9.00;99.90;;;;;;4954774;28;20480;-86
2022/01/28 09:47:10;;;;;;;28.25;5.03;;;8.40;99.90;;;;;;4971139;28;20046;-86
2022/01/28 09:49:37;;;;;;;23.73;4.60;;;8.50;99.90;;;;;;4971678;28;20081;-91
2022/01/28 09:52:04;;;;;;;30.05;6.05;;;8.40;99.90;;;;;;4988352;28;20089;-86
2022/01/28 09:54:30;;;;;;;27.80;5.20;;;8.30;99.90;;;;;;4955028;28;20050;-87
2022/01/28 09:56:55;;;;;;;21.48;4.13;;;8.30;99.90;;;;;;4973985;28;20046;-87
2022/01/28 09:59:21;;;;;;;28.17;4.90;;;8.00;99.90;;;;;;4974510;28;20094;-87
2022/01/28 10:01:51;;;;;;;29.50;5.53;;;8.00;99.90;;;;;;4974431;28;20050;-87
2022/01/28 10:04:18;;;;;;;24.88;4.45;;;8.00;99.90;;;;;;4958437;28;20039;-86
2022/01/28 10:06:43;;;;;;;28.63;5.97;;;7.80;99.90;;;;;;4942200;28;20369;-85
2022/01/28 10:09:10;;;;;;;24.38;5.15;;;7.80;99.90;;;;;;4974245;28;20137;-87
2022/01/28 10:11:37;;;;;;;24.13;4.20;;;7.90;99.90;;;;;;4958382;28;20137;-87
2022/01/28 10:14:10;;;;;;;21.08;4.40;;;8.20;99.90;;;;;;4957257;28;20488;-90
2022/01/28 10:16:35;;;;;;;23.75;4.93;;;7.60;99.90;;;;;;4958676;28;20085;-89
2022/01/28 10:19:05;;;;;;;26.58;4.40;;;7.40;99.90;;;;;;4990803;28;20513;-88
2022/01/28 10:21:44;;;;;;;28.60;4.50;;;7.40;99.90;;;;;;4941947;28;20054;-90
2022/01/28 10:24:19;;;;;;;23.65;5.03;;;7.20;99.90;;;;;;4959290;28;20131;-87
2022/01/28 10:27:17;;;;;;;30.10;5.63;;;7.30;99.90;;;;;;4990788;28;20042;-88
2022/01/28 10:29:43;;;;;;;24.33;4.85;;;7.40;99.90;;;;;;4990863;28;20050;-88
2022/01/28 10:32:10;;;;;;;25.48;5.93;;;7.30;99.90;;;;;;4973848;28;20083;-88
2022/01/28 10:34:40;;;;;;;26.20;4.43;;;7.40;99.90;;;;;;4973284;28;20068;-88
2022/01/28 10:37:13;;;;;;;25.98;4.45;;;7.50;99.90;;;;;;4941799;28;20107;-88
2022/01/28 10:39:51;;;;;;;28.38;4.72;;;7.30;99.90;;;;;;4957224;28;20050;-86
2022/01/28 10:42:36;;;;;;;29.38;4.78;;;7.40;99.90;;;;;;4965279;28;20050;-85
2022/01/28 10:45:13;;;;;;;;;;;7.30;99.90;;;;;;4975789;28;20061;-87
2022/01/28 10:47:42;;;;;;;32.83;4.88;;;7.20;99.90;;;;;;4991410;28;19924;-86
2022/01/28 10:50:34;;;;;;;25.70;4.72;;;7.20;99.90;;;;;;4957486;28;20050;-85
2022/01/28 10:53:06;;;;;;;29.48;5.18;;;7.40;99.90;;;;;;4990461;28;20058;-86
2022/01/28 10:55:33;;;;;;;23.58;4.40;;;7.50;99.90;;;;;;4942277;28;20057;-85
2022/01/28 10:58:01;;;;;;;32.05;5.03;;;7.70;99.90;;;;;;4973330;28;20050;-85
2022/01/28 11:00:37;;;;;;;35.22;4.88;;;7.80;99.90;;;;;;4942074;28;20088;-85
2022/01/28 11:03:04;;;;;;;30.58;4.72;;;7.90;99.90;;;;;;4925823;28;20093;-85
2022/01/28 11:05:31;;;;;;;21.25;4.32;;;7.70;99.90;;;;;;4972783;28;20050;-88
2022/01/28 11:07:58;;;;;;;30.88;4.88;;;7.70;99.90;;;;;;4957089;28;20060;-87
2022/01/28 11:10:23;;;;;;;30.85;5.30;;;8.90;99.90;;;;;;4973535;28;20046;-87
2022/01/28 11:12:51;;;;;;;23.25;4.05;;;7.80;99.90;;;;;;4973011;28;20042;-86
2022/01/28 11:15:16;;;;;;;22.65;4.45;;;7.80;99.90;;;;;;4973613;28;20050;-88
2022/01/28 11:17:42;;;;;;;21.88;4.00;;;7.70;99.90;;;;;;4957284;28;20061;-87
2022/01/28 11:20:08;;;;;;;21.17;4.05;;;7.80;99.90;;;;;;4973890;28;20053;-87
2022/01/28 11:22:34;;;;;;;22.13;3.90;;;7.80;99.90;;;;;;4941800;28;20050;-86
2022/01/28 11:25:21;;;;;;;19.55;4.38;;;7.90;99.90;;;;;;4972693;28;20042;-88
2022/01/28 11:27:47;;;;;;;29.48;4.28;;;8.00;99.90;;;;;;4973408;28;20049;-87
2022/01/28 11:30:28;;;;;;;27.73;4.72;;;7.90;99.90;;;;;;4972865;28;20046;-88
2022/01/28 11:33:02;;;;;;;28.48;4.10;;;7.90;99.90;;;;;;4972878;28;20186;-88
2022/01/28 11:35:32;;;;;;;19.13;4.15;;;7.90;99.90;;;;;;4941219;28;20062;-88
2022/01/28 11:38:03;;;;;;;19.77;4.22;;;7.90;99.90;;;;;;4956596;28;20050;-87
2022/01/28 11:40:41;;;;;;;29.77;4.15;;;7.70;99.90;;;;;;4942550;28;20049;-87
2022/01/28 11:43:17;;;;;;;17.05;3.33;;;7.70;99.90;;;;;;4972945;28;20144;-86
2022/01/28 11:45:43;;;;;;;26.33;5.18;;;8.10;99.90;;;;;;4973023;28;20111;-87
2022/01/28 11:48:08;;;;;;;18.27;3.85;;;7.80;99.90;;;;;;4972955;28;20467;-89
2022/01/28 11:50:34;;;;;;;28.35;5.07;;;7.60;99.90;;;;;;4990018;28;20456;-86
2022/01/28 11:53:00;;;;;;;23.27;5.15;;;7.60;99.90;;;;;;4989441;28;20042;-86
2022/01/28 11:55:26;;;;;;;26.40;4.55;;;7.50;99.90;;;;;;4956505;28;20031;-86
2022/01/28 11:58:01;;;;;;;25.65;4.38;;;7.50;99.90;;;;;;4974934;28;20134;-86
2022/01/28 12:00:36;;;;;;;21.92;4.03;;;7.70;99.90;;;;;;4974901;28;20104;-86
2022/01/28 12:03:13;;;;;;;26.92;4.45;;;7.70;99.90;;;;;;4972281;28;20046;-86
2022/01/28 12:05:39;;;;;;;22.30;4.72;;;8.00;99.90;;;;;;4972244;28;20042;-88
2022/01/28 12:08:05;;;;;;;25.08;4.75;;;7.90;99.90;;;;;;4989291;28;20115;-86
2022/01/28 12:10:33;;;;;;;25.73;4.40;;;7.80;99.90;;;;;;4972337;28;20050;-86
2022/01/28 12:15:29;;;;;;;26.23;4.07;;;8.00;99.90;;;;;;4972571;28;20137;-87
2022/01/28 12:18:06;;;;;;;31.58;5.00;;;8.20;99.90;;;;;;4971512;28;20053;-87
2022/01/28 12:20:50;;;;;;;27.95;4.32;;;8.10;99.90;;;;;;4956582;28;20047;-86
2022/01/28 12:23:18;;;;;;;29.52;4.68;;;8.10;99.90;;;;;;4971987;28;20368;-87
2022/01/28 12:25:44;;;;;;;31.48;5.97;;;8.10;99.90;;;;;;4989684;28;20349;-86
2022/01/28 12:28:19;;;;;;;28.10;4.75;;;8.10;99.90;;;;;;4972008;28;20054;-87
2022/01/28 12:30:49;;;;;;;26.13;3.90;;;8.00;99.90;;;;;;4972003;28;20111;-86
2022/01/28 12:33:20;;;;;;;21.60;4.10;;;8.10;99.90;;;;;;4956218;28;20049;-87
2022/01/28 12:35:49;;;;;;;27.73;5.28;;;8.30;99.90;;;;;;4940939;28;20103;-87
2022/01/28 12:38:15;;;;;;;22.52;3.90;;;8.20;99.90;;;;;;4971564;28;20054;-87
2022/01/28 12:40:47;;;;;;;24.27;4.20;;;8.40;99.90;;;;;;4971964;28;20384;-87
2022/01/28 12:43:16;;;;;;;23.33;4.97;;;8.40;99.90;;;;;;4956505;28;20042;-88
2022/01/28 12:45:45;;;;;;;19.90;4.90;;;8.20;99.90;;;;;;4973670;28;20477;-87
2022/01/28 12:48:11;;;;;;;25.45;4.03;;;8.10;99.90;;;;;;4983464;28;20059;-87
2022/01/28 12:50:36;;;;;;;28.50;4.53;;;8.10;99.90;;;;;;4956465;28;20042;-87
2022/01/28 12:53:02;;;;;;;20.38;3.63;;;8.00;99.90;;;;;;4956017;28;20125;-87
2022/01/28 12:55:33;;;;;;;24.17;4.80;;;7.80;99.90;;;;;;4972062;28;20164;-85
2022/01/28 12:57:58;;;;;;;19.27;3.97;;;7.70;99.90;;;;;;4971757;28;20049;-87
2022/01/28 13:00:24;;;;;;;23.52;3.70;;;7.60;99.90;;;;;;4988177;28;20107;-86
2022/01/28 13:02:51;;;;;;;30.02;4.00;;;7.50;99.90;;;;;;4971489;28;20047;-85
2022/01/28 13:05:32;;;;;;;22.75;4.20;;;7.40;99.90;;;;;;4988569;28;20066;-86
2022/01/28 13:08:31;;;;;;;25.95;5.22;;;7.50;99.90;;;;;;4958193;28;20097;-86
2022/01/28 13:10:49;;;;;;;17.25;3.60;;;7.50;99.90;;;;;;4971949;28;20105;-86
2022/01/28 13:13:15;;;;;;;26.50;4.95;;;7.60;99.90;;;;;;4971157;28;20086;-85
2022/01/28 13:15:41;;;;;;;22.70;3.90;;;7.70;99.90;;;;;;4988697;28;20061;-87
2022/01/28 13:18:07;;;;;;;21.00;4.05;;;7.60;99.90;;;;;;4971410;28;20133;-85
2022/01/28 13:20:38;;;;;;;18.55;3.78;;;7.70;99.90;;;;;;4955547;28;20046;-86
2022/01/28 13:23:04;;;;;;;21.88;3.67;;;7.60;99.90;;;;;;4955945;28;20054;-88
2022/01/28 13:25:30;;;;;;;16.23;3.47;;;7.60;99.90;;;;;;4954824;28;20050;-87
2022/01/28 13:28:05;;;;;;;24.90;4.35;;;7.60;99.90;;;;;;4971123;28;20085;-86
2022/01/28 13:30:34;;;;;;;22.35;4.63;;;7.50;99.90;;;;;;4944140;28;20050;-86
2022/01/28 13:33:02;;;;;;;24.70;3.60;;;7.30;99.90;;;;;;4974831;28;20038;-87
2022/01/28 13:35:28;;;;;;;18.67;4.07;;;7.40;99.90;;;;;;4958521;28;20490;-86
2022/01/28 13:37:59;;;;;;;20.98;3.45;;;7.50;99.90;;;;;;4992111;28;20042;-86
2022/01/28 13:40:28;;;;;;;22.23;3.90;;;7.40;99.90;;;;;;4958736;28;20046;-87
2022/01/28 13:43:00;;;;;;;18.35;3.60;;;7.40;99.90;;;;;;4974409;28;20544;-87
2022/01/28 13:45:50;;;;;;;20.48;3.97;;;7.40;99.90;;;;;;4974229;28;20065;-86
2022/01/28 13:48:22;;;;;;;20.92;3.78;;;7.40;99.90;;;;;;4958354;28;20424;-88
2022/01/28 13:50:49;;;;;;;21.27;4.03;;;7.40;99.90;;;;;;4974976;28;20437;-89
2022/01/28 13:53:34;;;;;;;26.05;4.07;;;7.30;99.90;;;;;;4942028;28;20391;-85
2022/01/28 13:56:01;;;;;;;16.27;3.72;;;7.30;99.90;;;;;;4976816;28;20452;-85
2022/01/28 13:58:26;;;;;;;18.17;3.65;;;7.30;99.90;;;;;;4973555;28;20117;-84
2022/01/28 14:00:52;;;;;;;17.42;3.60;;;7.30;99.90;;;;;;4974032;28;20125;-86
2022/01/28 14:03:19;;;;;;;18.15;3.47;;;7.40;99.90;;;;;;4990957;28;20535;-86
2022/01/28 14:05:48;;;;;;;25.13;3.28;;;7.50;99.90;;;;;;4958352;28;20093;-87
2022/01/28 14:08:13;;;;;;;15.77;3.28;;;7.50;99.90;;;;;;4976098;28;20126;-87
2022/01/28 14:10:39;;;;;;;25.88;3.88;;;7.30;99.90;;;;;;4974723;28;20076;-85
2022/01/28 14:13:22;;;;;;;19.08;3.40;;;7.30;99.90;;;;;;4973785;28;20045;-85
2022/01/28 14:16:04;;;;;;;23.58;3.30;;;7.40;99.90;;;;;;4973513;28;20484;-86
2022/01/28 14:18:30;;;;;;;16.58;3.40;;;7.40;99.90;;;;;;4973774;28;20052;-85
2022/01/28 14:20:56;;;;;;;19.85;3.47;;;7.40;99.90;;;;;;4991270;28;20379;-84
2022/01/28 14:23:22;;;;;;;26.15;4.15;;;7.40;99.90;;;;;;4973336;28;20054;-84